Aeroporto :
LOGIN :

Iscrizione | Disclaimer

   EN    FR    IT 

 










Sommario :    VFR   VFR Marginale   IFR   IFR Intensivo   IFR Molto Intensivo
Visibilità : 
Base nubi : 
>= 8 km
>= 3000ft
5 / 8 km
1000 / 3000 ft
1500m / 5 km
500 / 1000 ft
800 / 1500m
200 / 500 ft
< 800m
< 200 ft
Simboli :   Temporali  Nebbia  Neve Forte  Precipitazioni Forti  Vento > 20 kt
SIGMETs :   Varie  Temporali  Ghiacco  Turbolenza  Onda orograficha  Ceneri Vulcaniche






- Altitudine del aeroporto : 170 ft
- Codice IATA : BGO


ENBR - Bergen , Flesland

ULTIMO METAR :
  • 050320Z 06006KT 9999 FEW020 SCT060 11/09 Q0988 RMK WIND 1200FT 08010KT

METARs OBSOLETI :
  • 050250Z VRB03KT 9999 FEW020 SCT060 10/10 Q0988 RMK WIND 1200FT 08008KT
  • 050220Z VRB02KT 9999 FEW020 SCT065 10/10 Q0988 RMK WIND 1200FT 08008KT
  • 050150Z 34002KT 9999 FEW015 BKN065 10/10 Q0989 RMK WIND 1200FT 09006KT
  • 050120Z 36003KT 9999 FEW015 BKN065 10/10 Q0989 RMK WIND 1200FT 08006KT
  • 050050Z 36004KT 340V040 9999 SCT025 BKN065 10/09 Q0990 RMK WIND 1200FT 08009KT

TAF TAF ENBR
Valido dal 05 a 00 ore il 06 a 00 ore UTC


0500/0524 36010KT 9999 -SHRA FEW012 BKN030
BECMG 0506/0509 12008KT



MetMap, La meteo Aeronautica in un colpo d'occhio ! - Copyright ORBIFLY Dicembre 2007 - Disclaimer

ORBIFLY MET'MAP TEAM :

Programmazione e sviluppo : Alexandra Zaïnal
Concezione : Baudouin d'Aumeries
Aiuto per la programmazione : Marc-Olivier Méhu
Supporto tecnico e logistico : Manuel Goepfert
Aiuto per la traduzione : Arnaldo La Scala

Contatto : metmap@orbifly.com




FONTI E CREDITI :

   NOAA